Time;durP1;ratioP1;P1;durP2;ratioP2;P2;SDS_P1;SDS_P2;PMS_P1;PMS_P2;Temp;Humidity;BMP_temperature;BMP_pressure;BME280_temperature;BME280_humidity;BME280_pressure;Samples;Min_cycle;Max_cycle;Signal;HPM_P1;HPM_P2
2023/10/18 00:01:07;;;;;;;13.95;6.47;;;;;;;;;;4996193;28;20366;-65
2023/10/18 00:03:32;;;;;;;12.70;6.22;;;;;;;;;;4996397;28;20033;-64
2023/10/18 00:05:59;;;;;;;10.67;6.43;;;;;;;;;;4996467;28;20026;-64
2023/10/18 00:08:24;;;;;;;12.55;6.05;;;;;;;;;;4996498;28;20085;-64
2023/10/18 00:10:55;;;;;;;10.17;6.20;;;;;;;;;;4995943;28;20526;-64
2023/10/18 00:13:23;;;;;;;9.60;6.38;;;;;;;;;;4996358;28;20014;-64
2023/10/18 00:15:55;;;;;;;9.52;6.20;;;;;;;;;;4995976;28;20033;-64
2023/10/18 00:18:20;;;;;;;11.18;5.95;;;;;;;;;;4996401;28;20018;-64
2023/10/18 00:20:46;;;;;;;11.40;6.13;;;;;;;;;;4996016;28;20088;-63
2023/10/18 00:23:11;;;;;;;10.95;6.55;;;;;;;;;;4996090;28;20027;-63
2023/10/18 00:25:37;;;;;;;9.30;6.30;;;;;;;;;;4995859;28;20041;-64
2023/10/18 00:28:03;;;;;;;10.47;5.73;;;;;;;;;;4995941;28;20025;-63
2023/10/18 00:30:30;;;;;;;8.55;5.38;;;;;;;;;;4995599;28;20259;-64
2023/10/18 00:32:55;;;;;;;11.75;6.20;;;;;;;;;;4995782;28;20030;-64
2023/10/18 00:35:20;;;;;;;9.70;6.10;;;;;;;;;;4995608;28;20037;-64
2023/10/18 00:37:47;;;;;;;9.03;5.97;;;;;;;;;;4995826;28;20021;-64
2023/10/18 00:42:53;;;;;;;12.95;6.07;;;;;;;;;;4995769;28;20018;-64
2023/10/18 00:45:19;;;;;;;7.87;5.27;;;;;;;;;;4995699;28;20020;-64
2023/10/18 00:47:45;;;;;;;10.38;6.28;;;;;;;;;;4995431;28;20026;-64
2023/10/18 00:50:11;;;;;;;9.13;5.80;;;;;;;;;;4995480;28;20022;-64
2023/10/18 00:52:39;;;;;;;9.63;5.75;;;;;;;;;;4995698;28;20022;-64
2023/10/18 00:55:05;;;;;;;8.90;5.30;;;;;;;;;;4995490;28;20040;-64
2023/10/18 00:57:36;;;;;;;11.27;5.80;;;;;;;;;;4995745;28;20271;-64
2023/10/18 01:00:07;;;;;;;9.38;5.60;;;;;;;;;;4995281;28;20018;-64
2023/10/18 01:02:36;;;;;;;9.97;5.53;;;;;;;;;;4995611;28;20056;-64
2023/10/18 01:05:09;;;;;;;9.30;5.18;;;;;;;;;;4995439;28;20033;-64
2023/10/18 01:07:35;;;;;;;9.35;5.55;;;;;;;;;;4995346;28;20383;-64
2023/10/18 01:10:06;;;;;;;9.63;5.88;;;;;;;;;;4995097;28;20018;-64
2023/10/18 01:12:34;;;;;;;11.85;5.95;;;;;;;;;;4995282;28;20030;-64
2023/10/18 01:14:59;;;;;;;10.23;6.22;;;;;;;;;;4995174;28;20018;-65
2023/10/18 01:17:25;;;;;;;9.90;6.05;;;;;;;;;;4995177;28;20070;-65
2023/10/18 01:19:53;;;;;;;8.73;5.53;;;;;;;;;;4995107;28;20077;-65
2023/10/18 01:22:19;;;;;;;8.85;5.82;;;;;;;;;;4994962;28;20026;-65
2023/10/18 01:24:45;;;;;;;10.05;5.85;;;;;;;;;;4995030;28;20061;-66
2023/10/18 01:27:12;;;;;;;9.45;5.13;;;;;;;;;;4994877;28;20057;-65
2023/10/18 01:29:38;;;;;;;8.75;5.40;;;;;;;;;;4995100;28;20035;-66
2023/10/18 01:32:04;;;;;;;9.65;5.53;;;;;;;;;;4994593;28;20073;-65
2023/10/18 01:34:31;;;;;;;10.48;5.63;;;;;;;;;;4995004;28;20444;-65
2023/10/18 01:36:56;;;;;;;10.27;5.68;;;;;;;;;;4994900;28;20026;-65
2023/10/18 01:39:22;;;;;;;9.77;6.00;;;;;;;;;;4994600;28;20386;-65
2023/10/18 01:41:48;;;;;;;11.47;6.10;;;;;;;;;;4993686;28;20323;-66
2023/10/18 01:44:18;;;;;;;9.55;5.60;;;;;;;;;;4994353;28;20072;-66
2023/10/18 01:46:48;;;;;;;12.25;6.30;;;;;;;;;;4994338;28;20109;-66
2023/10/18 01:49:18;;;;;;;11.23;5.93;;;;;;;;;;4994819;28;20032;-66
2023/10/18 01:51:46;;;;;;;10.02;6.05;;;;;;;;;;4994350;28;20035;-65
2023/10/18 01:54:15;;;;;;;12.15;6.53;;;;;;;;;;4994280;28;20050;-66
2023/10/18 01:56:41;;;;;;;11.30;5.85;;;;;;;;;;4994147;28;20105;-65
2023/10/18 01:59:08;;;;;;;10.13;5.88;;;;;;;;;;4994316;28;20106;-66
2023/10/18 02:01:34;;;;;;;10.25;5.82;;;;;;;;;;4994531;28;20481;-66
2023/10/18 02:03:59;;;;;;;12.38;6.60;;;;;;;;;;4994329;28;20022;-66
2023/10/18 02:06:25;;;;;;;8.48;5.00;;;;;;;;;;4994257;28;20356;-66
2023/10/18 02:08:50;;;;;;;11.07;6.25;;;;;;;;;;4994120;28;20026;-65
2023/10/18 02:11:15;;;;;;;12.63;6.27;;;;;;;;;;4993977;28;20041;-65
2023/10/18 02:13:41;;;;;;;12.20;6.63;;;;;;;;;;4994325;28;20026;-66
2023/10/18 02:16:07;;;;;;;10.57;5.85;;;;;;;;;;4994010;28;20022;-66
2023/10/18 02:18:35;;;;;;;15.75;6.20;;;;;;;;;;4994068;28;20466;-65
2023/10/18 02:21:02;;;;;;;14.23;6.40;;;;;;;;;;4993935;28;20030;-66
2023/10/18 02:23:34;;;;;;;11.02;6.38;;;;;;;;;;4993567;28;20026;-65
2023/10/18 02:26:00;;;;;;;10.77;6.50;;;;;;;;;;4994042;28;20026;-66
2023/10/18 02:28:28;;;;;;;11.25;6.70;;;;;;;;;;4993710;28;20113;-66
2023/10/18 02:31:11;;;;;;;9.88;6.03;;;;;;;;;;4994046;28;20374;-66
2023/10/18 02:33:36;;;;;;;12.73;6.88;;;;;;;;;;4993518;28;20545;-65
2023/10/18 02:36:06;;;;;;;12.32;7.30;;;;;;;;;;4993992;28;20019;-66
2023/10/18 02:38:32;;;;;;;12.85;7.57;;;;;;;;;;4993971;28;20398;-65
2023/10/18 02:40:57;;;;;;;12.88;7.13;;;;;;;;;;4993493;28;20027;-66
2023/10/18 02:43:23;;;;;;;12.77;8.02;;;;;;;;;;4993988;28;20109;-66
2023/10/18 02:45:51;;;;;;;14.77;7.13;;;;;;;;;;4993603;28;20034;-65
2023/10/18 02:48:22;;;;;;;14.30;8.00;;;;;;;;;;4993362;28;20018;-66
2023/10/18 02:50:47;;;;;;;16.02;8.00;;;;;;;;;;4993907;28;20022;-66
2023/10/18 02:53:17;;;;;;;20.67;10.05;;;;;;;;;;4992923;28;20108;-66
2023/10/18 02:55:45;;;;;;;14.82;8.15;;;;;;;;;;4988198;28;20027;-66
2023/10/18 02:58:11;;;;;;;12.93;6.72;;;;;;;;;;4993602;28;20018;-66
2023/10/18 03:00:40;;;;;;;12.60;6.80;;;;;;;;;;4993262;28;20121;-66
2023/10/18 03:03:05;;;;;;;12.25;6.95;;;;;;;;;;4993588;28;20276;-65
2023/10/18 03:05:33;;;;;;;15.27;7.30;;;;;;;;;;4993470;28;20033;-65
2023/10/18 03:07:58;;;;;;;11.50;7.55;;;;;;;;;;4993379;28;20264;-66
2023/10/18 03:10:27;;;;;;;19.77;9.68;;;;;;;;;;4993462;28;20410;-65
2023/10/18 03:12:53;;;;;;;15.55;8.65;;;;;;;;;;4993002;28;20022;-65
2023/10/18 03:15:18;;;;;;;12.30;8.18;;;;;;;;;;4993450;28;20027;-65
2023/10/18 03:17:43;;;;;;;20.70;9.77;;;;;;;;;;4993410;28;20494;-66
2023/10/18 03:20:23;;;;;;;15.32;9.98;;;;;;;;;;4992939;28;20118;-66
2023/10/18 03:22:49;;;;;;;21.88;11.35;;;;;;;;;;4993334;28;20036;-65
2023/10/18 03:25:26;;;;;;;20.67;11.00;;;;;;;;;;4993324;28;20026;-66
2023/10/18 03:27:57;;;;;;;22.77;10.65;;;;;;;;;;4993249;28;20025;-66
2023/10/18 03:30:23;;;;;;;15.35;10.07;;;;;;;;;;4993003;28;20078;-66
2023/10/18 03:32:51;;;;;;;22.85;11.57;;;;;;;;;;4993203;28;20026;-66
2023/10/18 03:35:20;;;;;;;18.95;10.40;;;;;;;;;;4993445;28;20467;-64
2023/10/18 03:37:46;;;;;;;18.40;11.07;;;;;;;;;;4993389;28;20018;-64
2023/10/18 03:40:18;;;;;;;20.85;10.70;;;;;;;;;;4993111;28;20026;-64
2023/10/18 03:42:45;;;;;;;21.10;10.95;;;;;;;;;;4993098;28;20430;-64
2023/10/18 03:45:13;;;;;;;19.83;11.40;;;;;;;;;;4993107;28;20112;-64
2023/10/18 03:47:39;;;;;;;19.98;10.70;;;;;;;;;;4993370;28;20034;-64
2023/10/18 03:50:18;;;;;;;20.40;11.15;;;;;;;;;;4992898;28;20386;-64
2023/10/18 03:52:45;;;;;;;20.95;11.20;;;;;;;;;;4993259;28;20034;-64
2023/10/18 03:55:17;;;;;;;21.73;12.07;;;;;;;;;;4992609;28;20085;-64
2023/10/18 03:57:43;;;;;;;22.42;11.05;;;;;;;;;;4992789;28;20061;-64
2023/10/18 04:02:48;;;;;;;22.45;11.80;;;;;;;;;;4993118;28;20022;-64
2023/10/18 04:05:30;;;;;;;20.77;11.73;;;;;;;;;;4994441;28;20439;-64
2023/10/18 04:07:55;;;;;;;20.80;11.75;;;;;;;;;;4996405;28;20026;-64
2023/10/18 04:10:24;;;;;;;20.98;12.02;;;;;;;;;;4996217;28;20046;-64
2023/10/18 04:12:50;;;;;;;17.27;10.57;;;;;;;;;;4996171;28;20037;-64
2023/10/18 04:15:29;;;;;;;20.73;11.15;;;;;;;;;;4996327;28;20018;-64
2023/10/18 04:20:35;;;;;;;23.02;12.05;;;;;;;;;;4996295;28;20031;-64
2023/10/18 04:23:12;;;;;;;22.45;12.00;;;;;;;;;;4996165;28;20037;-64
2023/10/18 04:25:38;;;;;;;25.63;12.95;;;;;;;;;;4996224;28;20479;-64
2023/10/18 04:28:04;;;;;;;21.58;12.55;;;;;;;;;;4995989;28;20053;-64
2023/10/18 04:30:30;;;;;;;26.63;14.10;;;;;;;;;;4995965;28;20030;-64
2023/10/18 04:33:16;;;;;;;23.33;13.00;;;;;;;;;;4996227;28;20026;-64
2023/10/18 04:35:45;;;;;;;24.30;11.73;;;;;;;;;;4990276;28;20024;-63
2023/10/18 04:38:23;;;;;;;23.33;11.25;;;;;;;;;;4995909;28;20025;-64
2023/10/18 04:43:32;;;;;;;22.98;13.32;;;;;;;;;;4989631;28;20030;-64
2023/10/18 04:45:59;;;;;;;25.63;13.38;;;;;;;;;;4996091;28;20038;-63
2023/10/18 04:51:08;;;;;;;23.85;12.70;;;;;;;;;;4996101;28;20540;-63
2023/10/18 04:53:34;;;;;;;22.35;13.20;;;;;;;;;;4995993;28;20014;-63
2023/10/18 04:56:01;;;;;;;25.97;13.50;;;;;;;;;;4995897;28;20101;-63
2023/10/18 04:58:29;;;;;;;24.92;13.23;;;;;;;;;;4995856;28;20327;-63
2023/10/18 05:00:57;;;;;;;23.27;13.20;;;;;;;;;;4996097;28;20049;-63
2023/10/18 05:03:30;;;;;;;26.05;13.68;;;;;;;;;;4995775;28;20026;-63
2023/10/18 05:05:56;;;;;;;27.73;13.93;;;;;;;;;;4995996;28;20030;-63
2023/10/18 05:08:23;;;;;;;24.75;12.73;;;;;;;;;;4995993;28;20034;-63
2023/10/18 05:10:51;;;;;;;26.40;13.93;;;;;;;;;;4995676;28;20495;-63
2023/10/18 05:13:32;;;;;;;25.33;13.50;;;;;;;;;;4995827;28;20022;-63
2023/10/18 05:16:00;;;;;;;25.95;13.90;;;;;;;;;;4995704;28;20359;-63
2023/10/18 05:18:25;;;;;;;26.52;12.77;;;;;;;;;;4995660;28;20387;-63
2023/10/18 05:23:25;;;;;;;24.00;13.40;;;;;;;;;;4995765;28;20256;-63
2023/10/18 05:28:46;;;;;;;24.48;13.23;;;;;;;;;;4995664;28;20030;-63
2023/10/18 05:31:48;;;;;;;24.08;12.73;;;;;;;;;;4995495;28;20018;-63
2023/10/18 05:41:59;;;;;;;25.65;13.85;;;;;;;;;;4995404;28;20030;-63
2023/10/18 05:44:25;;;;;;;23.52;12.85;;;;;;;;;;4994997;28;20030;-63
2023/10/18 05:46:50;;;;;;;25.65;12.55;;;;;;;;;;4994953;28;20026;-63
2023/10/18 05:49:16;;;;;;;26.05;13.75;;;;;;;;;;4994885;28;20022;-63
2023/10/18 05:51:51;;;;;;;27.35;13.57;;;;;;;;;;4994806;28;20018;-63
2023/10/18 05:54:28;;;;;;;24.70;12.63;;;;;;;;;;4994894;28;20355;-63
2023/10/18 05:56:54;;;;;;;25.98;13.23;;;;;;;;;;4995023;28;20022;-63
2023/10/18 06:01:53;;;;;;;24.00;13.82;;;;;;;;;;4995042;28;20026;-63
2023/10/18 06:04:29;;;;;;;29.20;13.43;;;;;;;;;;4994933;28;20019;-63
2023/10/18 06:07:10;;;;;;;22.00;12.73;;;;;;;;;;4994639;28;20430;-63
2023/10/18 06:09:54;;;;;;;23.92;13.88;;;;;;;;;;4994862;28;20430;-63
2023/10/18 06:12:23;;;;;;;28.17;14.23;;;;;;;;;;4994468;28;20086;-63
2023/10/18 06:14:52;;;;;;;22.75;12.95;;;;;;;;;;4994730;28;20023;-63
2023/10/18 06:17:22;;;;;;;25.15;14.15;;;;;;;;;;4994450;28;20018;-63
2023/10/18 06:19:50;;;;;;;28.60;13.50;;;;;;;;;;4994443;28;20049;-63
2023/10/18 06:22:28;;;;;;;25.70;14.48;;;;;;;;;;4994322;28;20027;-63
2023/10/18 06:24:55;;;;;;;24.55;13.45;;;;;;;;;;4994311;28;20022;-63
2023/10/18 06:27:20;;;;;;;23.27;14.00;;;;;;;;;;4993865;28;20069;-63
2023/10/18 06:29:49;;;;;;;25.17;12.85;;;;;;;;;;4994521;28;20046;-63
2023/10/18 06:32:15;;;;;;;26.92;14.38;;;;;;;;;;4994144;28;20057;-63
2023/10/18 06:34:43;;;;;;;30.50;15.02;;;;;;;;;;4994447;28;20101;-63
2023/10/18 06:37:09;;;;;;;25.48;14.50;;;;;;;;;;4994140;28;20065;-63
2023/10/18 06:39:35;;;;;;;29.42;14.68;;;;;;;;;;4994083;28;20050;-63
2023/10/18 06:42:06;;;;;;;28.50;14.38;;;;;;;;;;4994393;28;20081;-63
2023/10/18 06:44:33;;;;;;;24.35;14.02;;;;;;;;;;4994046;28;20058;-63
2023/10/18 06:47:01;;;;;;;25.13;14.82;;;;;;;;;;4994314;28;20030;-63
2023/10/18 06:49:26;;;;;;;28.50;15.82;;;;;;;;;;4994238;28;20438;-63
2023/10/18 06:51:51;;;;;;;23.03;14.23;;;;;;;;;;4993939;28;20072;-63
2023/10/18 06:54:31;;;;;;;30.20;14.43;;;;;;;;;;4994171;28;20073;-63
2023/10/18 06:56:57;;;;;;;24.77;14.40;;;;;;;;;;4993950;28;20331;-63
2023/10/18 06:59:27;;;;;;;24.55;13.20;;;;;;;;;;4994176;28;20057;-63
2023/10/18 07:01:58;;;;;;;24.67;14.48;;;;;;;;;;4993902;28;20486;-63
2023/10/18 07:07:19;;;;;;;25.17;13.27;;;;;;;;;;4971121;28;20030;-66
2023/10/18 07:09:45;;;;;;;24.13;14.50;;;;;;;;;;4994085;28;20486;-66
2023/10/18 07:12:17;;;;;;;23.30;14.38;;;;;;;;;;4993618;28;20046;-66
2023/10/18 07:14:42;;;;;;;;;;;;;;;;;;4994460;28;20394;-66
2023/10/18 07:17:09;;;;;;;21.60;12.50;;;;;;;;;;4993782;28;20262;-66
2023/10/18 07:19:56;;;;;;;24.55;14.48;;;;;;;;;;4993694;28;20014;-66
2023/10/18 07:23:03;;;;;;;30.90;16.58;;;;;;;;;;4993445;28;20034;-66
2023/10/18 07:25:09;;;;;;;29.92;14.63;;;;;;;;;;4988157;28;20037;-66
2023/10/18 07:27:39;;;;;;;31.58;14.15;;;;;;;;;;4993927;28;20026;-66
2023/10/18 07:30:13;;;;;;;26.25;14.70;;;;;;;;;;4993699;28;20415;-66
2023/10/18 07:32:39;;;;;;;23.92;14.20;;;;;;;;;;4993826;28;20034;-66
2023/10/18 07:35:06;;;;;;;27.33;14.00;;;;;;;;;;4993892;28;20487;-66
2023/10/18 07:37:41;;;;;;;24.38;13.13;;;;;;;;;;4993811;28;20033;-66
2023/10/18 07:40:11;;;;;;;24.92;12.88;;;;;;;;;;4995292;28;20042;-66
2023/10/18 07:42:41;;;;;;;26.90;13.38;;;;;;;;;;4997570;28;20101;-66
2023/10/18 07:45:08;;;;;;;20.40;11.82;;;;;;;;;;4997284;28;20019;-66
2023/10/18 07:47:37;;;;;;;25.58;12.07;;;;;;;;;;4997217;28;20022;-66
2023/10/18 07:50:10;;;;;;;21.60;12.02;;;;;;;;;;4997100;28;20018;-66
2023/10/18 07:52:35;;;;;;;21.42;11.60;;;;;;;;;;4997325;28;20046;-66
2023/10/18 07:55:00;;;;;;;20.97;12.17;;;;;;;;;;4997112;28;20506;-66
2023/10/18 07:57:33;;;;;;;22.63;11.33;;;;;;;;;;4996987;28;20018;-66
2023/10/18 08:00:21;;;;;;;24.73;12.52;;;;;;;;;;4997007;28;20029;-66
2023/10/18 08:02:43;;;;;;;24.08;11.57;;;;;;;;;;4996820;28;20026;-66
2023/10/18 08:05:09;;;;;;;22.67;11.30;;;;;;;;;;4997113;28;20026;-66
2023/10/18 08:07:36;;;;;;;20.58;11.23;;;;;;;;;;4997110;28;20493;-66
2023/10/18 08:10:07;;;;;;;22.08;11.63;;;;;;;;;;4996934;28;20034;-66
2023/10/18 08:12:33;;;;;;;21.05;11.10;;;;;;;;;;4996950;28;20026;-66
2023/10/18 08:14:58;;;;;;;18.92;10.90;;;;;;;;;;4997134;28;20037;-64
2023/10/18 08:17:29;;;;;;;17.83;11.23;;;;;;;;;;4996950;28;20015;-64
2023/10/18 08:19:56;;;;;;;22.50;10.87;;;;;;;;;;4996956;28;20532;-64
2023/10/18 08:22:22;;;;;;;19.67;11.00;;;;;;;;;;4996593;28;20390;-63
2023/10/18 08:24:50;;;;;;;18.80;11.35;;;;;;;;;;4996555;28;20018;-64
2023/10/18 08:27:15;;;;;;;20.95;10.40;;;;;;;;;;4996541;28;20109;-64
2023/10/18 08:29:41;;;;;;;21.95;11.85;;;;;;;;;;4996504;28;20068;-63
2023/10/18 08:32:14;;;;;;;18.88;10.38;;;;;;;;;;4996437;28;20031;-63
2023/10/18 08:34:40;;;;;;;21.58;10.52;;;;;;;;;;4996660;28;20471;-63
2023/10/18 08:37:06;;;;;;;19.13;10.15;;;;;;;;;;4996346;28;20015;-63
2023/10/18 08:39:32;;;;;;;16.85;10.35;;;;;;;;;;4996551;28;20018;-63
2023/10/18 08:42:05;;;;;;;19.27;9.98;;;;;;;;;;4996339;28;20113;-63
2023/10/18 08:44:31;;;;;;;18.15;9.30;;;;;;;;;;4996477;28;20101;-63
2023/10/18 08:47:12;;;;;;;21.40;10.73;;;;;;;;;;4996242;28;20018;-63
2023/10/18 08:49:44;;;;;;;16.80;8.63;;;;;;;;;;4996040;28;20050;-63
2023/10/18 08:52:09;;;;;;;;;;;;;;;;;;4996267;28;20045;-63
2023/10/18 08:54:36;;;;;;;16.95;8.50;;;;;;;;;;4995941;28;20012;-63
2023/10/18 08:57:06;;;;;;;14.52;8.80;;;;;;;;;;4996072;28;20030;-63
2023/10/18 08:59:48;;;;;;;17.75;9.60;;;;;;;;;;4995946;28;20018;-63
2023/10/18 09:02:23;;;;;;;15.63;8.85;;;;;;;;;;4996177;28;20053;-63
2023/10/18 09:04:52;;;;;;;15.48;8.55;;;;;;;;;;4995780;28;20074;-63
2023/10/18 09:07:18;;;;;;;15.73;8.32;;;;;;;;;;4995836;28;20429;-63
2023/10/18 09:09:53;;;;;;;15.30;8.00;;;;;;;;;;4995681;28;20030;-63
2023/10/18 09:12:18;;;;;;;17.73;9.63;;;;;;;;;;4995556;28;20050;-63
2023/10/18 09:14:50;;;;;;;17.10;8.45;;;;;;;;;;4995623;28;20025;-63
2023/10/18 09:17:21;;;;;;;16.45;8.43;;;;;;;;;;4995642;28;20097;-63
2023/10/18 09:19:51;;;;;;;14.93;7.57;;;;;;;;;;4995792;28;20026;-64
2023/10/18 09:22:16;;;;;;;17.75;7.78;;;;;;;;;;4995413;28;20030;-63
2023/10/18 09:24:43;;;;;;;15.83;7.70;;;;;;;;;;4995542;28;20030;-66
2023/10/18 09:27:09;;;;;;;15.25;7.45;;;;;;;;;;4995628;28;20101;-66
2023/10/18 09:29:35;;;;;;;12.15;7.18;;;;;;;;;;4995580;28;20122;-66
2023/10/18 09:32:03;;;;;;;16.27;7.72;;;;;;;;;;4995520;28;20460;-66
2023/10/18 09:34:38;;;;;;;16.33;7.28;;;;;;;;;;4995472;28;20019;-66
2023/10/18 09:37:12;;;;;;;13.98;7.75;;;;;;;;;;4995450;28;20120;-66
2023/10/18 09:39:43;;;;;;;13.73;7.57;;;;;;;;;;4995402;28;20018;-66
2023/10/18 09:42:17;;;;;;;13.18;7.03;;;;;;;;;;4995092;28;20042;-66
2023/10/18 09:44:42;;;;;;;14.02;6.15;;;;;;;;;;4995041;28;20152;-66
2023/10/18 09:47:08;;;;;;;12.18;7.07;;;;;;;;;;4995252;28;20049;-66
2023/10/18 09:49:33;;;;;;;13.13;6.35;;;;;;;;;;4995221;28;20030;-66
2023/10/18 09:52:07;;;;;;;12.18;6.22;;;;;;;;;;4994905;28;20447;-66
2023/10/18 09:54:36;;;;;;;14.65;6.28;;;;;;;;;;4994928;28;20026;-66
2023/10/18 09:57:01;;;;;;;13.52;6.57;;;;;;;;;;4994912;28;20027;-66
2023/10/18 09:59:30;;;;;;;9.77;6.35;;;;;;;;;;4994840;28;20076;-66
2023/10/18 10:02:08;;;;;;;12.95;6.15;;;;;;;;;;4994389;28;20026;-66
2023/10/18 10:04:37;;;;;;;13.10;6.70;;;;;;;;;;4994752;28;20022;-66
2023/10/18 10:09:47;;;;;;;11.27;6.38;;;;;;;;;;4994653;28;20025;-66
2023/10/18 10:12:14;;;;;;;9.43;5.78;;;;;;;;;;4994384;28;20042;-66
2023/10/18 10:14:39;;;;;;;16.23;6.35;;;;;;;;;;4994566;28;20073;-66
2023/10/18 10:17:07;;;;;;;9.60;5.50;;;;;;;;;;4994563;28;20014;-66
2023/10/18 10:19:35;;;;;;;10.38;5.60;;;;;;;;;;4994493;28;20026;-66
2023/10/18 10:22:07;;;;;;;13.05;5.75;;;;;;;;;;4994482;28;20043;-66
2023/10/18 10:24:35;;;;;;;9.55;5.57;;;;;;;;;;4994509;28;20017;-66
2023/10/18 10:32:55;;;;;;;9.43;5.63;;;;;;;;;;4994520;28;20113;-66
2023/10/18 10:35:24;;;;;;;10.80;5.35;;;;;;;;;;4994297;28;20474;-63
2023/10/18 10:37:55;;;;;;;11.13;5.60;;;;;;;;;;4994483;28;20030;-64
2023/10/18 10:43:41;;;;;;;9.48;4.88;;;;;;;;;;4994384;28;20030;-63
2023/10/18 10:51:10;;;;;;;10.88;4.80;;;;;;;;;;4994352;28;20026;-63
2023/10/18 10:53:58;;;;;;;10.05;5.03;;;;;;;;;;4994167;28;20386;-64
2023/10/18 10:56:33;;;;;;;13.80;5.22;;;;;;;;;;4994220;28;20019;-64
2023/10/18 11:01:39;;;;;;;10.35;4.50;;;;;;;;;;4993950;28;20542;-64
2023/10/18 11:04:10;;;;;;;12.55;4.75;;;;;;;;;;4993998;28;20116;-63
2023/10/18 11:06:42;;;;;;;13.70;4.75;;;;;;;;;;4993943;28;20359;-63
2023/10/18 11:09:08;;;;;;;8.70;4.63;;;;;;;;;;4994174;28;20395;-63
2023/10/18 11:11:34;;;;;;;10.38;4.70;;;;;;;;;;4993733;28;20510;-63
2023/10/18 11:14:01;;;;;;;14.77;5.18;;;;;;;;;;4995251;28;20026;-63
2023/10/18 11:16:26;;;;;;;9.50;4.47;;;;;;;;;;4998140;28;20471;-63
2023/10/18 11:18:55;;;;;;;7.45;4.47;;;;;;;;;;4997755;28;20030;-63
2023/10/18 11:21:29;;;;;;;14.88;5.13;;;;;;;;;;4997695;28;20049;-63
2023/10/18 11:24:01;;;;;;;8.18;4.78;;;;;;;;;;4997651;28;20045;-63
2023/10/18 11:26:27;;;;;;;;;;;;;;;;;;4998317;28;20499;-63
2023/10/18 11:28:56;;;;;;;10.73;4.80;;;;;;;;;;4997856;28;19916;-63
2023/10/18 11:31:26;;;;;;;15.02;5.10;;;;;;;;;;4997500;28;20026;-63
2023/10/18 11:33:56;;;;;;;14.60;5.18;;;;;;;;;;4997667;28;20030;-63
2023/10/18 11:36:21;;;;;;;10.38;5.03;;;;;;;;;;4997445;28;20019;-63
2023/10/18 11:41:34;;;;;;;12.38;4.40;;;;;;;;;;4997709;28;20034;-63
2023/10/18 11:44:06;;;;;;;9.20;4.22;;;;;;;;;;4996214;28;20026;-63
2023/10/18 11:46:46;;;;;;;7.80;4.35;;;;;;;;;;4997498;28;20030;-63
2023/10/18 11:49:12;;;;;;;7.45;4.10;;;;;;;;;;4997195;28;20109;-63
2023/10/18 11:51:44;;;;;;;11.10;4.10;;;;;;;;;;4997250;28;20092;-63
2023/10/18 11:54:12;;;;;;;15.20;4.07;;;;;;;;;;4997070;28;20034;-63
2023/10/18 11:56:37;;;;;;;10.38;4.70;;;;;;;;;;4997200;28;20018;-63
2023/10/18 11:59:03;;;;;;;8.27;3.83;;;;;;;;;;4997003;28;20073;-63
2023/10/18 12:01:34;;;;;;;7.45;4.32;;;;;;;;;;4997326;28;20022;-63
2023/10/18 12:04:00;;;;;;;10.53;4.13;;;;;;;;;;4997059;28;20050;-63
2023/10/18 12:06:25;;;;;;;7.88;4.35;;;;;;;;;;4996919;28;20065;-63
2023/10/18 12:11:35;;;;;;;8.77;3.80;;;;;;;;;;4996853;28;20590;-63
2023/10/18 12:14:00;;;;;;;13.73;4.40;;;;;;;;;;4996757;28;20105;-64
2023/10/18 12:16:25;;;;;;;9.05;3.88;;;;;;;;;;4996987;28;20014;-63
2023/10/18 12:18:52;;;;;;;8.57;4.03;;;;;;;;;;4996685;28;20491;-63
2023/10/18 12:21:20;;;;;;;8.25;3.63;;;;;;;;;;4996930;28;20770;-63
2023/10/18 12:23:46;;;;;;;12.13;4.20;;;;;;;;;;4996894;28;20058;-64
2023/10/18 12:26:11;;;;;;;10.25;4.10;;;;;;;;;;4995987;28;20527;-63
2023/10/18 12:28:37;;;;;;;7.68;4.05;;;;;;;;;;4996779;28;20080;-64
2023/10/18 12:31:09;;;;;;;10.10;3.95;;;;;;;;;;4996758;28;20034;-63
2023/10/18 12:33:35;;;;;;;10.77;4.22;;;;;;;;;;4996615;28;20033;-63
2023/10/18 12:36:00;;;;;;;16.52;4.00;;;;;;;;;;4996682;28;20383;-63
2023/10/18 12:38:32;;;;;;;9.40;3.97;;;;;;;;;;4996351;28;20019;-63
2023/10/18 12:41:06;;;;;;;8.52;4.40;;;;;;;;;;4996455;28;20026;-63
2023/10/18 12:43:32;;;;;;;9.60;3.90;;;;;;;;;;4996286;28;20509;-63
2023/10/18 12:45:57;;;;;;;6.38;4.00;;;;;;;;;;4996490;28;20093;-63
2023/10/18 12:48:22;;;;;;;10.75;4.18;;;;;;;;;;4996411;28;20386;-63
2023/10/18 12:50:54;;;;;;;14.65;5.00;;;;;;;;;;4996141;28;20022;-63
2023/10/18 12:55:57;;;;;;;6.47;4.10;;;;;;;;;;4996266;28;20058;-63
2023/10/18 12:58:29;;;;;;;11.88;4.93;;;;;;;;;;4996262;28;20168;-64
2023/10/18 13:01:10;;;;;;;11.00;4.67;;;;;;;;;;4995948;28;20053;-63
2023/10/18 13:03:43;;;;;;;12.73;5.32;;;;;;;;;;4995958;28;20252;-64
2023/10/18 13:06:15;;;;;;;11.15;4.30;;;;;;;;;;4996099;28;20027;-63
2023/10/18 13:08:53;;;;;;;8.23;4.35;;;;;;;;;;4996057;28;20386;-63
2023/10/18 13:11:44;;;;;;;7.38;4.30;;;;;;;;;;4995698;28;20414;-63
2023/10/18 13:14:05;;;;;;;12.13;5.05;;;;;;;;;;4995470;28;20027;-63
2023/10/18 13:16:31;;;;;;;15.90;5.88;;;;;;;;;;4995634;28;20026;-64
2023/10/18 13:18:57;;;;;;;10.48;5.07;;;;;;;;;;4995818;28;20022;-64
2023/10/18 13:21:26;;;;;;;9.00;4.63;;;;;;;;;;4995446;28;20097;-63
2023/10/18 13:23:56;;;;;;;9.43;5.10;;;;;;;;;;4994259;28;20030;-63
2023/10/18 13:26:26;;;;;;;8.18;3.75;;;;;;;;;;4995429;28;20045;-63
2023/10/18 13:28:52;;;;;;;8.68;4.20;;;;;;;;;;4995341;28;20026;-63
2023/10/18 13:31:30;;;;;;;9.25;5.13;;;;;;;;;;4995348;28;20018;-63
2023/10/18 13:33:55;;;;;;;7.70;4.18;;;;;;;;;;4995477;28;20033;-63
2023/10/18 13:36:24;;;;;;;11.52;4.88;;;;;;;;;;4995198;28;20022;-63
2023/10/18 13:38:49;;;;;;;11.40;5.07;;;;;;;;;;4995218;28;20022;-63
2023/10/18 13:41:15;;;;;;;11.57;4.45;;;;;;;;;;4995396;28;20083;-63
2023/10/18 13:43:40;;;;;;;7.95;4.82;;;;;;;;;;4995198;28;20042;-63
2023/10/18 13:46:08;;;;;;;8.93;5.00;;;;;;;;;;4995044;28;20101;-63
2023/10/18 13:48:33;;;;;;;9.70;4.70;;;;;;;;;;4995255;28;20236;-63
2023/10/18 13:50:58;;;;;;;10.87;4.80;;;;;;;;;;4995019;28;20104;-63
2023/10/18 13:53:25;;;;;;;11.20;5.33;;;;;;;;;;4994897;28;20022;-63
2023/10/18 13:55:55;;;;;;;12.15;5.20;;;;;;;;;;4995074;28;20490;-63
2023/10/18 13:58:21;;;;;;;10.10;5.03;;;;;;;;;;4995134;28;20530;-64
2023/10/18 14:00:48;;;;;;;10.02;4.65;;;;;;;;;;4995066;28;20022;-64
2023/10/18 14:03:13;;;;;;;8.80;5.45;;;;;;;;;;4994697;28;20105;-63
2023/10/18 14:05:40;;;;;;;9.27;4.63;;;;;;;;;;4995067;28;20046;-63
2023/10/18 14:08:07;;;;;;;9.13;4.72;;;;;;;;;;4994924;28;20716;-63
2023/10/18 14:10:35;;;;;;;9.25;4.38;;;;;;;;;;4994683;28;20422;-63
2023/10/18 14:13:03;;;;;;;8.10;3.92;;;;;;;;;;4994774;28;20497;-63
2023/10/18 14:15:29;;;;;;;11.40;4.80;;;;;;;;;;4994847;28;20463;-63
2023/10/18 14:17:57;;;;;;;11.90;4.88;;;;;;;;;;4994467;28;20101;-63
2023/10/18 14:20:25;;;;;;;8.20;4.65;;;;;;;;;;4994498;28;20023;-63
2023/10/18 14:22:55;;;;;;;8.25;4.78;;;;;;;;;;4994452;28;20041;-63
2023/10/18 14:25:20;;;;;;;10.18;4.53;;;;;;;;;;4994573;28;20022;-63
2023/10/18 14:27:45;;;;;;;8.93;5.05;;;;;;;;;;4994319;28;20526;-63
2023/10/18 14:30:12;;;;;;;7.57;4.53;;;;;;;;;;4994351;28;20023;-63
2023/10/18 14:32:39;;;;;;;8.95;4.65;;;;;;;;;;4994451;28;20037;-63
2023/10/18 14:35:05;;;;;;;7.22;4.43;;;;;;;;;;4994468;28;20433;-63
2023/10/18 14:37:32;;;;;;;7.97;4.30;;;;;;;;;;4993100;28;20145;-78
2023/10/18 14:39:57;;;;;;;8.85;4.70;;;;;;;;;;4993459;28;20023;-63
2023/10/18 14:42:28;;;;;;;9.13;4.55;;;;;;;;;;4991352;28;20798;-64
2023/10/18 14:44:53;;;;;;;10.23;4.88;;;;;;;;;;4989159;28;20522;-63
2023/10/18 14:47:18;;;;;;;14.10;4.83;;;;;;;;;;4993038;28;20057;-63
2023/10/18 14:49:44;;;;;;;9.53;4.70;;;;;;;;;;4984949;28;20272;-63
2023/10/18 14:52:13;;;;;;;9.75;4.72;;;;;;;;;;4992893;28;20146;-64
2023/10/18 14:54:41;;;;;;;13.00;5.30;;;;;;;;;;4992513;28;20026;-64
2023/10/18 14:57:06;;;;;;;9.65;4.45;;;;;;;;;;4988400;28;20018;-63
2023/10/18 14:59:32;;;;;;;6.73;4.03;;;;;;;;;;4992204;28;20026;-63
2023/10/18 15:01:58;;;;;;;7.90;5.05;;;;;;;;;;4991948;28;20256;-64
2023/10/18 15:04:24;;;;;;;12.73;4.97;;;;;;;;;;4993050;28;20520;-63
2023/10/18 15:06:49;;;;;;;7.57;4.50;;;;;;;;;;4992825;28;20109;-63
2023/10/18 15:09:16;;;;;;;9.43;4.43;;;;;;;;;;4993281;28;20053;-63
2023/10/18 15:11:41;;;;;;;9.68;4.63;;;;;;;;;;4992622;28;20456;-64
2023/10/18 15:14:07;;;;;;;10.27;4.73;;;;;;;;;;4991740;28;20149;-65
2023/10/18 15:16:33;;;;;;;10.38;4.95;;;;;;;;;;4992935;28;20613;-66
2023/10/18 15:18:58;;;;;;;8.60;4.63;;;;;;;;;;4992950;28;20022;-66
2023/10/18 15:21:24;;;;;;;7.85;4.15;;;;;;;;;;4992894;28;20744;-66
2023/10/18 15:23:49;;;;;;;8.63;4.68;;;;;;;;;;4992819;28;20458;-66
2023/10/18 15:26:16;;;;;;;7.63;4.17;;;;;;;;;;4992761;28;20102;-66
2023/10/18 15:28:41;;;;;;;9.65;4.35;;;;;;;;;;4992169;28;20322;-66
2023/10/18 15:31:14;;;;;;;8.43;4.30;;;;;;;;;;4992562;28;20470;-66
2023/10/18 15:33:40;;;;;;;9.13;4.43;;;;;;;;;;4992825;28;20068;-66
2023/10/18 15:36:15;;;;;;;9.25;4.63;;;;;;;;;;4992881;28;20102;-66
2023/10/18 15:38:42;;;;;;;10.20;4.15;;;;;;;;;;4992941;28;20118;-65